Terminal Aerodrome Forecast
Issued by NWS

Current Version | Previous Version | Text Only | Print | Product List | Glossary On
Versions: 1 2 3 4 5 6 7 8 9 10 11 12 13
000
FTUS42 KMLB 251700
TAFSUA
TAF
KSUA 251738Z 2518/2618 11011KT P6SM VCTS SCT035CB SCT060 SCT250
      TEMPO 2520/2523 3SM TSRA SCT020 BKN035CB OVC080
     FM260200 22003KT P6SM FEW040 BKN250
     FM261600 12010KT P6SM SCT030 SCT250=

USA.gov is the U.S. government's official web portal to all federal, state and local government web resources and services.